KTQH

Details ICAO KTQH
Name TAHLEQUAH MUNI
Region United States
Timezone America/Chicago (UTC-6.0)
Plans Departing 0
Arriving 0
Stats Elevation 873 ft / 266 m (AMSL)
Location 35.928921° -95.004542°
Runways 1
Magnetic Variation 2.081° E
Sunrise 2017-12-16 13:25:19 UTC / 2017-12-16 07:25:19 Local
Sunset 2017-12-16 23:09:00 UTC / 2017-12-16 17:09:00 Local
Advertisement - Login to hide

Runways

ID Width Length Bearing (true) Bearing (mag) Surface Threshold Offset Overrun Length
17 75 ft / 23 m 4,014 ft / 1,224 m 182.23° 180.15° Asphalt 0 ft / 0 m 0 ft / 0 m
35 75 ft / 23 m 4,014 ft / 1,224 m 2.23° 0.15° Asphalt 0 ft / 0 m 0 ft / 0 m

Map

Weather


0- 5 10 15 20 25 30 35+ Temperature / ° C

Clouds and Precipitation
Forecast for 2017-12-16 18:00 UTC. Updated 2 hours ago

Ground ~20,000 ft ~40,000 ft Winds

METAR

KTQH 161435Z AUTO 19008KT 10SM CLR 03/M02 A3009 RMK AO2

TAF

Not found

Frequencies

Recorded 118.42 MHz AWOS 3
Unicom 122.80 MHz CTAF/UNICOM
Warning: Do not use this data for real-world aviation or navigation. No guarantee of current accuracy is given.